createdAt,value
2022-09-02T00:03:13.788Z,2.95
2022-09-02T00:08:15.951Z,2.28
2022-09-02T00:13:19.391Z,2.65
2022-09-02T00:18:20.372Z,3.00
2022-09-02T00:23:23.743Z,3.13
2022-09-02T00:28:27.953Z,2.53
2022-09-02T00:33:28.880Z,2.50
2022-09-02T00:38:33.736Z,3.03
2022-09-02T00:43:45.549Z,2.50
2022-09-02T00:48:50.743Z,2.40
2022-09-02T00:53:53.609Z,2.13
2022-09-02T00:58:56.266Z,2.38
2022-09-02T01:03:57.415Z,2.97
2022-09-02T01:09:04.219Z,2.33
2022-09-02T01:14:06.020Z,2.40
2022-09-02T01:19:11.898Z,2.22
2022-09-02T01:24:14.267Z,1.80
2022-09-02T01:29:16.457Z,2.75
2022-09-02T01:34:17.386Z,2.60
2022-09-02T01:39:19.349Z,2.42
2022-09-02T01:44:20.039Z,2.60
2022-09-02T01:49:24.050Z,2.88
2022-09-02T01:54:26.050Z,2.85
2022-09-02T01:59:26.734Z,2.22
2022-09-02T02:04:28.680Z,2.40
2022-09-02T02:09:32.417Z,2.35
2022-09-02T02:14:33.110Z,2.83
2022-09-02T02:19:34.308Z,2.03
2022-09-02T02:24:36.652Z,2.47
2022-09-02T02:29:37.280Z,2.08
2022-09-02T02:34:39.427Z,2.55
2022-09-02T02:39:43.286Z,2.53
2022-09-02T02:44:44.645Z,2.63
2022-09-02T02:49:46.349Z,2.80
2022-09-02T02:54:48.488Z,3.00
2022-09-02T02:59:49.251Z,2.40
2022-09-02T03:04:54.249Z,2.70
2022-09-02T03:09:57.235Z,3.00
2022-09-02T03:14:58.214Z,2.80
2022-09-02T03:19:59.786Z,2.75
2022-09-02T03:25:06.208Z,2.15
2022-09-02T03:30:12.762Z,2.72
2022-09-02T03:35:17.295Z,2.80
2022-09-02T03:40:21.927Z,3.08
2022-09-02T03:45:25.634Z,3.40
2022-09-02T03:50:30.516Z,3.15
2022-09-02T03:55:33.249Z,2.80
2022-09-02T04:00:35.071Z,2.88
2022-09-02T04:05:38.036Z,2.80
2022-09-02T04:10:40.169Z,2.75
2022-09-02T04:15:43.029Z,2.33
2022-09-02T04:20:44.923Z,3.20
2022-09-02T04:25:47.548Z,2.50
2022-09-02T04:30:50.355Z,2.72
2022-09-02T04:35:52.214Z,2.80
2022-09-02T04:40:55.230Z,3.03
2022-09-02T04:45:57.676Z,3.25
2022-09-02T04:50:58.865Z,2.80
2022-09-02T04:56:01.320Z,2.53
2022-09-02T05:01:07.104Z,3.80
2022-09-02T05:06:11.976Z,2.50
2022-09-02T05:11:18.449Z,3.17
2022-09-02T05:16:23.474Z,2.63
2022-09-02T05:21:24.462Z,2.85
2022-09-02T05:26:27.336Z,2.75
2022-09-02T05:31:29.051Z,3.40
2022-09-02T05:36:32.527Z,2.40
2022-09-02T05:41:34.771Z,2.55
2022-09-02T05:46:37.755Z,2.83
2022-09-02T05:51:42.558Z,3.17
2022-09-02T05:56:46.700Z,2.80
2022-09-02T06:01:49.274Z,2.97
2022-09-02T06:06:51.973Z,2.83
2022-09-02T06:11:57.183Z,3.00
2022-09-02T06:17:02.874Z,3.33
2022-09-02T06:22:13.147Z,2.45
2022-09-02T06:27:18.154Z,2.30
2022-09-02T06:32:21.768Z,2.30
2022-09-02T06:37:25.038Z,2.10
2022-09-02T06:42:27.579Z,2.35
2022-09-02T06:47:57.432Z,2.20
2022-09-02T06:52:59.393Z,2.40
2022-09-02T06:58:02.847Z,2.53
2022-09-02T07:03:23.393Z,2.42
2022-09-02T07:08:24.308Z,2.05
2022-09-02T07:13:26.747Z,2.00
2022-09-02T07:18:29.107Z,2.42
2022-09-02T07:23:30.063Z,1.40
2022-09-02T07:28:34.354Z,1.80
2022-09-02T07:33:36.869Z,1.70
2022-09-02T07:38:40.355Z,1.35
2022-09-02T07:43:42.701Z,1.30
2022-09-02T07:48:44.847Z,1.30
2022-09-02T07:53:46.068Z,1.40
2022-09-02T07:58:48.172Z,1.13
2022-09-02T08:03:49.601Z,1.25
2022-09-02T08:08:50.760Z,1.08
2022-09-02T08:13:53.380Z,1.20
2022-09-02T08:18:53.999Z,1.02
2022-09-02T08:23:54.705Z,1.00
2022-09-02T08:28:57.157Z,0.98
2022-09-02T08:33:57.910Z,0.73
2022-09-02T08:38:58.780Z,1.40
2022-09-02T08:44:02.893Z,0.43
2022-09-02T08:49:08.202Z,0.70
2022-09-02T08:54:12.297Z,0.50
2022-09-02T08:59:15.835Z,0.70
2022-09-02T09:04:25.306Z,1.10
2022-09-02T09:09:37.337Z,0.47
2022-09-02T09:14:46.246Z,0.60
2022-09-02T09:19:51.794Z,0.43
2022-09-02T09:24:52.593Z,0.50
2022-09-02T09:29:54.575Z,0.80
2022-09-02T09:35:01.549Z,0.40
2022-09-02T09:40:03.294Z,0.32
2022-09-02T09:45:22.051Z,0.40
2022-09-02T09:50:22.770Z,0.88
2022-09-02T09:55:25.187Z,0.50
2022-09-02T10:00:32.076Z,0.55
2022-09-02T10:05:36.039Z,0.60
2022-09-02T10:10:36.823Z,0.45
2022-09-02T10:15:54.665Z,0.40
2022-09-02T10:21:14.808Z,0.45
2022-09-02T10:26:26.985Z,0.40
2022-09-02T10:31:38.107Z,0.50
2022-09-02T10:36:54.484Z,0.50
2022-09-02T10:42:04.527Z,0.52
2022-09-02T10:47:11.762Z,0.57
2022-09-02T10:52:30.914Z,0.65
2022-09-02T10:57:35.273Z,0.73
2022-09-02T11:02:43.032Z,0.60
2022-09-02T11:07:48.633Z,1.00
2022-09-02T11:12:57.985Z,0.77
2022-09-02T11:18:06.555Z,0.70
2022-09-02T11:23:18.928Z,0.50
2022-09-02T11:28:34.125Z,0.85
2022-09-02T11:33:52.061Z,0.52
2022-09-02T11:38:56.539Z,0.73
2022-09-02T11:44:06.914Z,0.70
2022-09-02T11:49:55.502Z,0.50
2022-09-02T11:55:07.394Z,0.60
2022-09-02T12:00:29.211Z,0.57
2022-09-02T12:05:51.403Z,0.50
2022-09-02T12:11:02.171Z,0.60
2022-09-02T12:16:45.997Z,0.60
2022-09-02T12:22:21.824Z,0.50
2022-09-02T12:27:30.265Z,0.60
2022-09-02T12:33:12.587Z,0.60
2022-09-02T12:38:29.671Z,0.65
2022-09-02T12:43:36.458Z,0.50
2022-09-02T12:48:43.158Z,0.90
2022-09-02T12:53:47.963Z,0.60
2022-09-02T12:58:52.681Z,1.02
2022-09-02T13:04:09.215Z,0.70
2022-09-02T13:09:49.493Z,0.60
2022-09-02T13:15:04.102Z,0.50
2022-09-02T13:20:41.973Z,0.68
2022-09-02T13:26:01.927Z,0.60
2022-09-02T13:31:14.426Z,0.70
2022-09-02T13:36:27.455Z,0.70
2022-09-02T13:41:29.976Z,0.50
2022-09-02T13:46:32.334Z,0.60
2022-09-02T13:51:35.119Z,0.68
2022-09-02T13:56:35.944Z,0.60
2022-09-02T14:01:40.006Z,0.50
2022-09-02T14:06:44.268Z,0.65
2022-09-02T14:11:48.004Z,0.50
2022-09-02T14:16:50.107Z,0.60
2022-09-02T14:21:52.969Z,0.68
2022-09-02T14:26:55.944Z,0.65
2022-09-02T14:32:24.146Z,0.47
2022-09-02T14:37:26.278Z,0.80
2022-09-02T14:42:29.430Z,0.60
2022-09-02T14:47:37.729Z,0.65
2022-09-02T14:52:39.374Z,0.50
2022-09-02T14:57:42.057Z,0.77
2022-09-02T15:02:46.397Z,0.70
2022-09-02T15:07:47.232Z,0.60
2022-09-02T15:12:51.197Z,1.20
2022-09-02T15:17:53.136Z,0.65
2022-09-02T15:22:54.456Z,0.70
2022-09-02T15:27:55.105Z,1.13
2022-09-02T15:32:57.073Z,0.60
2022-09-02T15:37:57.668Z,0.90
2022-09-02T15:43:00.048Z,1.73
2022-09-02T15:48:02.037Z,0.63
2022-09-02T15:53:02.832Z,0.98
2022-09-02T15:58:03.566Z,0.70
2022-09-02T16:03:05.645Z,0.70
2022-09-02T16:08:06.386Z,0.57
2022-09-02T16:13:07.047Z,0.60
2022-09-02T16:18:09.036Z,0.70
2022-09-02T16:23:09.710Z,0.90
2022-09-02T16:28:10.456Z,0.90
2022-09-02T16:33:12.918Z,0.93
2022-09-02T16:38:13.568Z,0.80
2022-09-02T16:43:14.426Z,0.85
2022-09-02T16:48:18.975Z,1.17
2022-09-02T16:53:22.148Z,0.77
2022-09-02T16:58:22.882Z,1.27
2022-09-02T17:03:24.983Z,0.93
2022-09-02T17:08:25.749Z,0.90
2022-09-02T17:13:26.407Z,0.85
2022-09-02T17:18:28.376Z,1.10
2022-09-02T17:23:29.002Z,0.88
2022-09-02T17:28:29.656Z,0.82
2022-09-02T17:33:31.910Z,0.73
2022-09-02T17:38:32.582Z,0.90
2022-09-02T17:43:33.304Z,0.93
2022-09-02T17:48:45.138Z,0.55
2022-09-02T17:53:56.481Z,1.20
2022-09-02T17:59:08.406Z,1.00
2022-09-02T18:04:26.034Z,2.05
2022-09-02T18:09:28.972Z,1.60
2022-09-02T18:14:37.528Z,1.20
2022-09-02T18:19:48.010Z,1.10
2022-09-02T18:25:04.028Z,1.00
2022-09-02T18:30:07.953Z,1.30
2022-09-02T18:35:21.992Z,1.30
2022-09-02T18:40:30.472Z,1.40
2022-09-02T18:45:34.315Z,1.10
2022-09-02T18:50:51.513Z,1.05
2022-09-02T18:55:54.049Z,1.10
2022-09-02T19:00:59.737Z,1.20
2022-09-02T19:06:01.880Z,1.15
2022-09-02T19:11:08.735Z,1.25
2022-09-02T19:16:09.456Z,1.77
2022-09-02T19:21:14.551Z,1.42
2022-09-02T19:26:15.975Z,1.40
2022-09-02T19:31:20.843Z,1.30
2022-09-02T19:36:26.394Z,1.70
2022-09-02T19:41:32.007Z,1.20
2022-09-02T19:47:15.255Z,1.35
2022-09-02T19:51:54.892Z,1.30
2022-09-02T19:56:55.529Z,1.48
2022-09-02T20:01:57.386Z,1.30
2022-09-02T20:06:59.856Z,1.05
2022-09-02T20:12:00.629Z,1.15
2022-09-02T20:17:05.055Z,1.40
2022-09-02T20:22:07.042Z,1.08
2022-09-02T20:27:18.562Z,1.00
2022-09-02T20:32:34.223Z,1.00
2022-09-02T20:37:50.906Z,1.00
2022-09-02T20:43:33.221Z,1.33
2022-09-02T20:48:52.542Z,1.10
2022-09-02T20:54:10.333Z,1.25
2022-09-02T20:59:21.312Z,0.90
2022-09-02T21:04:31.665Z,1.13
2022-09-02T21:09:41.991Z,1.40
2022-09-02T21:14:47.216Z,1.27
2022-09-02T21:19:55.031Z,1.27
2022-09-02T21:25:00.890Z,1.90
2022-09-02T21:30:05.555Z,1.42
2022-09-02T21:35:11.699Z,1.15
2022-09-02T21:40:16.702Z,1.52
2022-09-02T21:45:24.138Z,1.50
2022-09-02T21:50:39.682Z,1.20
2022-09-02T21:55:55.011Z,1.60
2022-09-02T22:01:02.310Z,2.05
2022-09-02T22:06:10.031Z,1.80
2022-09-02T22:11:22.823Z,2.05
2022-09-02T22:16:32.777Z,2.00
2022-09-02T22:21:48.204Z,1.55
2022-09-02T22:26:53.761Z,1.80
2022-09-02T22:31:57.694Z,1.95
2022-09-02T22:37:06.355Z,1.65
2022-09-02T22:42:16.121Z,1.70
2022-09-02T22:47:35.882Z,1.80
2022-09-02T22:52:47.459Z,2.10
2022-09-02T22:57:59.511Z,2.03
2022-09-02T23:03:08.921Z,2.22
2022-09-02T23:08:11.304Z,1.95
2022-09-02T23:13:21.537Z,2.20
2022-09-02T23:18:29.623Z,2.10
2022-09-02T23:23:39.262Z,1.80
2022-09-02T23:28:58.275Z,1.70
2022-09-02T23:34:10.698Z,2.13
2022-09-02T23:39:27.803Z,2.42
2022-09-02T23:44:31.149Z,2.65
2022-09-02T23:49:40.178Z,2.28
2022-09-02T23:54:58.252Z,1.88
